sensor_id;sensor_type;location;lat;lon;timestamp;P1;durP1;ratioP1;P2;durP2;ratioP2
50122;SDS011;36021;48.670;6.184;2023-03-31T00:00:03;2.45;;;0.80;;
50122;SDS011;36021;48.670;6.184;2023-03-31T00:02:39;4.03;;;1.48;;
50122;SDS011;36021;48.670;6.184;2023-03-31T00:05:08;9.90;;;1.95;;
50122;SDS011;36021;48.670;6.184;2023-03-31T00:07:34;3.95;;;0.95;;
50122;SDS011;36021;48.670;6.184;2023-03-31T00:10:05;5.00;;;1.13;;
50122;SDS011;36021;48.670;6.184;2023-03-31T00:12:32;3.78;;;0.98;;
50122;SDS011;36021;48.670;6.184;2023-03-31T00:14:58;1.27;;;0.82;;
50122;SDS011;36021;48.670;6.184;2023-03-31T00:17:23;2.92;;;0.90;;
50122;SDS011;36021;48.670;6.184;2023-03-31T00:19:49;6.15;;;1.23;;
50122;SDS011;36021;48.670;6.184;2023-03-31T00:22:15;3.47;;;0.90;;
50122;SDS011;36021;48.670;6.184;2023-03-31T00:24:47;4.63;;;0.95;;
50122;SDS011;36021;48.670;6.184;2023-03-31T00:27:13;1.52;;;0.93;;
50122;SDS011;36021;48.670;6.184;2023-03-31T00:29:38;2.58;;;1.20;;
50122;SDS011;36021;48.670;6.184;2023-03-31T00:32:06;5.53;;;0.80;;
50122;SDS011;36021;48.670;6.184;2023-03-31T00:34:32;4.28;;;0.90;;
50122;SDS011;36021;48.670;6.184;2023-03-31T00:37:01;6.57;;;0.85;;
50122;SDS011;36021;48.670;6.184;2023-03-31T00:39:28;4.45;;;0.98;;
50122;SDS011;36021;48.670;6.184;2023-03-31T00:41:57;2.40;;;0.95;;
50122;SDS011;36021;48.670;6.184;2023-03-31T00:44:23;4.25;;;1.20;;
50122;SDS011;36021;48.670;6.184;2023-03-31T00:49:24;4.07;;;0.95;;
50122;SDS011;36021;48.670;6.184;2023-03-31T00:51:56;2.55;;;0.98;;
50122;SDS011;36021;48.670;6.184;2023-03-31T00:54:27;6.20;;;1.08;;
50122;SDS011;36021;48.670;6.184;2023-03-31T00:56:59;4.95;;;1.35;;
50122;SDS011;36021;48.670;6.184;2023-03-31T01:01:55;6.22;;;0.93;;
50122;SDS011;36021;48.670;6.184;2023-03-31T01:04:23;6.80;;;1.00;;
50122;SDS011;36021;48.670;6.184;2023-03-31T01:06:55;3.85;;;1.15;;
50122;SDS011;36021;48.670;6.184;2023-03-31T01:09:28;3.42;;;1.30;;
50122;SDS011;36021;48.670;6.184;2023-03-31T01:12:00;3.70;;;1.20;;
50122;SDS011;36021;48.670;6.184;2023-03-31T01:14:28;2.85;;;1.17;;
50122;SDS011;36021;48.670;6.184;2023-03-31T01:16:55;4.22;;;1.25;;
50122;SDS011;36021;48.670;6.184;2023-03-31T01:19:28;3.42;;;0.95;;
50122;SDS011;36021;48.670;6.184;2023-03-31T01:22:08;4.07;;;1.30;;
50122;SDS011;36021;48.670;6.184;2023-03-31T01:25:10;3.53;;;1.10;;
50122;SDS011;36021;48.670;6.184;2023-03-31T01:27:45;3.15;;;1.42;;
50122;SDS011;36021;48.670;6.184;2023-03-31T01:39:24;2.40;;;1.70;;
50122;SDS011;36021;48.670;6.184;2023-03-31T01:42:19;4.57;;;1.40;;
50122;SDS011;36021;48.670;6.184;2023-03-31T01:47:47;2.80;;;1.30;;
50122;SDS011;36021;48.670;6.184;2023-03-31T01:50:47;6.78;;;2.13;;
50122;SDS011;36021;48.670;6.184;2023-03-31T01:59:28;4.10;;;1.88;;
50122;SDS011;36021;48.670;6.184;2023-03-31T02:01:58;4.03;;;1.90;;
50122;SDS011;36021;48.670;6.184;2023-03-31T02:04:31;3.67;;;1.63;;
50122;SDS011;36021;48.670;6.184;2023-03-31T02:07:02;4.70;;;1.60;;
50122;SDS011;36021;48.670;6.184;2023-03-31T02:09:35;5.82;;;1.60;;
50122;SDS011;36021;48.670;6.184;2023-03-31T02:12:07;6.90;;;1.73;;
50122;SDS011;36021;48.670;6.184;2023-03-31T02:14:37;5.07;;;1.30;;
50122;SDS011;36021;48.670;6.184;2023-03-31T02:17:07;6.78;;;1.27;;
50122;SDS011;36021;48.670;6.184;2023-03-31T02:19:39;3.88;;;1.30;;
50122;SDS011;36021;48.670;6.184;2023-03-31T02:22:08;2.50;;;1.20;;
50122;SDS011;36021;48.670;6.184;2023-03-31T02:24:37;5.32;;;0.93;;
50122;SDS011;36021;48.670;6.184;2023-03-31T02:27:07;5.05;;;1.33;;
50122;SDS011;36021;48.670;6.184;2023-03-31T02:29:54;2.55;;;1.33;;
50122;SDS011;36021;48.670;6.184;2023-03-31T02:32:25;9.30;;;2.15;;
50122;SDS011;36021;48.670;6.184;2023-03-31T02:35:00;1.92;;;1.00;;
50122;SDS011;36021;48.670;6.184;2023-03-31T02:37:26;4.75;;;0.90;;
50122;SDS011;36021;48.670;6.184;2023-03-31T02:39:54;3.05;;;1.15;;
50122;SDS011;36021;48.670;6.184;2023-03-31T02:42:23;6.57;;;1.55;;
50122;SDS011;36021;48.670;6.184;2023-03-31T02:44:50;1.38;;;0.85;;
50122;SDS011;36021;48.670;6.184;2023-03-31T02:47:17;2.10;;;1.20;;
50122;SDS011;36021;48.670;6.184;2023-03-31T02:49:49;1.92;;;1.33;;
50122;SDS011;36021;48.670;6.184;2023-03-31T03:03:35;4.93;;;1.42;;
50122;SDS011;36021;48.670;6.184;2023-03-31T03:09:07;2.63;;;1.85;;
50122;SDS011;36021;48.670;6.184;2023-03-31T03:14:25;3.28;;;1.85;;
50122;SDS011;36021;48.670;6.184;2023-03-31T03:17:09;6.38;;;1.65;;
50122;SDS011;36021;48.670;6.184;2023-03-31T03:19:40;2.72;;;1.48;;
50122;SDS011;36021;48.670;6.184;2023-03-31T03:22:07;3.45;;;1.95;;
50122;SDS011;36021;48.670;6.184;2023-03-31T03:24:32;5.32;;;2.00;;
50122;SDS011;36021;48.670;6.184;2023-03-31T03:27:01;4.28;;;1.60;;
50122;SDS011;36021;48.670;6.184;2023-03-31T03:29:27;5.40;;;1.80;;
50122;SDS011;36021;48.670;6.184;2023-03-31T03:31:53;3.55;;;2.20;;
50122;SDS011;36021;48.670;6.184;2023-03-31T03:34:18;7.13;;;2.13;;
50122;SDS011;36021;48.670;6.184;2023-03-31T03:36:44;5.32;;;1.77;;
50122;SDS011;36021;48.670;6.184;2023-03-31T03:39:12;5.20;;;2.22;;
50122;SDS011;36021;48.670;6.184;2023-03-31T03:41:41;2.03;;;1.75;;
50122;SDS011;36021;48.670;6.184;2023-03-31T03:44:06;4.47;;;2.25;;
50122;SDS011;36021;48.670;6.184;2023-03-31T03:46:32;10.45;;;2.92;;
50122;SDS011;36021;48.670;6.184;2023-03-31T03:48:58;8.25;;;2.33;;
50122;SDS011;36021;48.670;6.184;2023-03-31T03:51:27;3.15;;;1.80;;
50122;SDS011;36021;48.670;6.184;2023-03-31T03:53:53;3.78;;;2.13;;
50122;SDS011;36021;48.670;6.184;2023-03-31T03:56:18;2.22;;;1.67;;
50122;SDS011;36021;48.670;6.184;2023-03-31T03:58:47;4.47;;;2.70;;
50122;SDS011;36021;48.670;6.184;2023-03-31T04:01:14;5.95;;;2.85;;
50122;SDS011;36021;48.670;6.184;2023-03-31T04:03:40;10.45;;;3.30;;
50122;SDS011;36021;48.670;6.184;2023-03-31T04:06:06;5.45;;;3.25;;
50122;SDS011;36021;48.670;6.184;2023-03-31T04:08:31;7.05;;;3.17;;
50122;SDS011;36021;48.670;6.184;2023-03-31T04:10:57;7.10;;;4.00;;
50122;SDS011;36021;48.670;6.184;2023-03-31T04:13:22;10.25;;;3.45;;
50122;SDS011;36021;48.670;6.184;2023-03-31T04:15:48;7.10;;;3.25;;
50122;SDS011;36021;48.670;6.184;2023-03-31T04:18:14;4.10;;;2.50;;
50122;SDS011;36021;48.670;6.184;2023-03-31T04:20:51;3.88;;;2.95;;
50122;SDS011;36021;48.670;6.184;2023-03-31T04:23:34;7.47;;;3.33;;
50122;SDS011;36021;48.670;6.184;2023-03-31T04:26:07;4.10;;;2.78;;
50122;SDS011;36021;48.670;6.184;2023-03-31T04:28:37;10.20;;;3.63;;
50122;SDS011;36021;48.670;6.184;2023-03-31T04:31:10;6.88;;;3.40;;
50122;SDS011;36021;48.670;6.184;2023-03-31T04:33:41;7.50;;;3.42;;
50122;SDS011;36021;48.670;6.184;2023-03-31T04:36:10;6.28;;;3.20;;
50122;SDS011;36021;48.670;6.184;2023-03-31T04:38:43;13.50;;;4.60;;
50122;SDS011;36021;48.670;6.184;2023-03-31T04:41:15;5.20;;;3.70;;
50122;SDS011;36021;48.670;6.184;2023-03-31T04:43:43;12.13;;;3.53;;
50122;SDS011;36021;48.670;6.184;2023-03-31T04:46:09;7.00;;;3.63;;
50122;SDS011;36021;48.670;6.184;2023-03-31T04:48:36;8.10;;;3.92;;
50122;SDS011;36021;48.670;6.184;2023-03-31T04:51:03;6.67;;;3.53;;
50122;SDS011;36021;48.670;6.184;2023-03-31T04:53:29;5.55;;;3.45;;
50122;SDS011;36021;48.670;6.184;2023-03-31T04:55:55;7.45;;;3.17;;
50122;SDS011;36021;48.670;6.184;2023-03-31T04:58:23;6.35;;;3.53;;
50122;SDS011;36021;48.670;6.184;2023-03-31T05:00:51;4.87;;;3.23;;
50122;SDS011;36021;48.670;6.184;2023-03-31T05:03:17;4.97;;;3.22;;
50122;SDS011;36021;48.670;6.184;2023-03-31T05:05:44;8.80;;;3.10;;
50122;SDS011;36021;48.670;6.184;2023-03-31T05:08:09;9.82;;;3.45;;
50122;SDS011;36021;48.670;6.184;2023-03-31T05:10:36;10.88;;;2.80;;
50122;SDS011;36021;48.670;6.184;2023-03-31T05:13:02;5.78;;;2.60;;
50122;SDS011;36021;48.670;6.184;2023-03-31T05:15:29;6.28;;;2.50;;
50122;SDS011;36021;48.670;6.184;2023-03-31T05:17:56;5.32;;;2.88;;
50122;SDS011;36021;48.670;6.184;2023-03-31T05:20:22;6.47;;;2.75;;
50122;SDS011;36021;48.670;6.184;2023-03-31T05:22:48;6.35;;;2.10;;
50122;SDS011;36021;48.670;6.184;2023-03-31T05:25:14;6.63;;;3.35;;
50122;SDS011;36021;48.670;6.184;2023-03-31T05:27:46;8.05;;;2.50;;
50122;SDS011;36021;48.670;6.184;2023-03-31T05:30:12;6.93;;;2.60;;
50122;SDS011;36021;48.670;6.184;2023-03-31T05:32:38;12.45;;;3.53;;
50122;SDS011;36021;48.670;6.184;2023-03-31T05:35:05;4.97;;;2.45;;
50122;SDS011;36021;48.670;6.184;2023-03-31T05:37:31;4.53;;;2.53;;
50122;SDS011;36021;48.670;6.184;2023-03-31T05:39:58;6.57;;;2.78;;
50122;SDS011;36021;48.670;6.184;2023-03-31T05:42:24;4.93;;;2.58;;
50122;SDS011;36021;48.670;6.184;2023-03-31T05:44:50;7.47;;;2.35;;
50122;SDS011;36021;48.670;6.184;2023-03-31T05:47:16;3.10;;;2.22;;
50122;SDS011;36021;48.670;6.184;2023-03-31T05:49:42;5.68;;;2.33;;
50122;SDS011;36021;48.670;6.184;2023-03-31T05:52:08;6.45;;;2.03;;
50122;SDS011;36021;48.670;6.184;2023-03-31T05:54:35;2.97;;;1.67;;
50122;SDS011;36021;48.670;6.184;2023-03-31T05:57:01;9.43;;;2.40;;
50122;SDS011;36021;48.670;6.184;2023-03-31T05:59:29;7.07;;;2.33;;
50122;SDS011;36021;48.670;6.184;2023-03-31T06:01:55;7.13;;;2.08;;
50122;SDS011;36021;48.670;6.184;2023-03-31T06:04:21;4.88;;;2.28;;
50122;SDS011;36021;48.670;6.184;2023-03-31T06:06:46;6.88;;;2.60;;
50122;SDS011;36021;48.670;6.184;2023-03-31T06:09:14;6.95;;;2.28;;
50122;SDS011;36021;48.670;6.184;2023-03-31T06:11:40;7.82;;;2.22;;
50122;SDS011;36021;48.670;6.184;2023-03-31T06:14:08;5.32;;;2.22;;
50122;SDS011;36021;48.670;6.184;2023-03-31T06:16:34;3.03;;;1.77;;
50122;SDS011;36021;48.670;6.184;2023-03-31T06:18:59;11.15;;;2.50;;
50122;SDS011;36021;48.670;6.184;2023-03-31T06:21:25;7.97;;;2.67;;
50122;SDS011;36021;48.670;6.184;2023-03-31T06:23:51;5.50;;;1.90;;
50122;SDS011;36021;48.670;6.184;2023-03-31T06:26:20;4.60;;;2.33;;
50122;SDS011;36021;48.670;6.184;2023-03-31T06:28:47;4.25;;;2.33;;
50122;SDS011;36021;48.670;6.184;2023-03-31T06:31:17;5.57;;;2.25;;
50122;SDS011;36021;48.670;6.184;2023-03-31T06:33:45;4.95;;;1.80;;
50122;SDS011;36021;48.670;6.184;2023-03-31T06:36:12;8.93;;;1.88;;
50122;SDS011;36021;48.670;6.184;2023-03-31T06:38:39;1.48;;;1.38;;
50122;SDS011;36021;48.670;6.184;2023-03-31T06:41:06;6.93;;;1.95;;
50122;SDS011;36021;48.670;6.184;2023-03-31T06:43:33;11.50;;;2.25;;
50122;SDS011;36021;48.670;6.184;2023-03-31T06:45:59;3.10;;;1.88;;
50122;SDS011;36021;48.670;6.184;2023-03-31T06:48:25;5.05;;;1.67;;
50122;SDS011;36021;48.670;6.184;2023-03-31T06:50:52;5.07;;;1.88;;
50122;SDS011;36021;48.670;6.184;2023-03-31T06:53:19;7.38;;;2.20;;
50122;SDS011;36021;48.670;6.184;2023-03-31T06:55:46;3.33;;;1.30;;
50122;SDS011;36021;48.670;6.184;2023-03-31T06:58:12;3.17;;;1.30;;
50122;SDS011;36021;48.670;6.184;2023-03-31T07:00:41;3.15;;;1.73;;
50122;SDS011;36021;48.670;6.184;2023-03-31T07:03:07;4.25;;;1.75;;
50122;SDS011;36021;48.670;6.184;2023-03-31T07:05:35;4.15;;;1.08;;
50122;SDS011;36021;48.670;6.184;2023-03-31T07:08:01;4.50;;;1.65;;
50122;SDS011;36021;48.670;6.184;2023-03-31T07:10:28;5.88;;;2.10;;
50122;SDS011;36021;48.670;6.184;2023-03-31T07:12:55;4.72;;;1.52;;
50122;SDS011;36021;48.670;6.184;2023-03-31T07:15:21;4.25;;;1.42;;
50122;SDS011;36021;48.670;6.184;2023-03-31T07:17:48;5.05;;;1.58;;
50122;SDS011;36021;48.670;6.184;2023-03-31T07:20:16;3.22;;;1.20;;
50122;SDS011;36021;48.670;6.184;2023-03-31T07:22:43;9.65;;;2.38;;
50122;SDS011;36021;48.670;6.184;2023-03-31T07:25:11;4.75;;;1.50;;
50122;SDS011;36021;48.670;6.184;2023-03-31T07:27:38;3.17;;;1.50;;
50122;SDS011;36021;48.670;6.184;2023-03-31T07:30:04;7.03;;;1.85;;
50122;SDS011;36021;48.670;6.184;2023-03-31T07:32:31;4.00;;;1.20;;
50122;SDS011;36021;48.670;6.184;2023-03-31T07:34:58;4.43;;;1.17;;
50122;SDS011;36021;48.670;6.184;2023-03-31T07:37:24;3.13;;;1.42;;
50122;SDS011;36021;48.670;6.184;2023-03-31T07:39:51;7.45;;;1.65;;
50122;SDS011;36021;48.670;6.184;2023-03-31T07:42:18;8.85;;;2.22;;
50122;SDS011;36021;48.670;6.184;2023-03-31T07:44:44;5.93;;;1.30;;
50122;SDS011;36021;48.670;6.184;2023-03-31T07:47:10;11.65;;;2.95;;
50122;SDS011;36021;48.670;6.184;2023-03-31T07:49:35;5.85;;;1.13;;
50122;SDS011;36021;48.670;6.184;2023-03-31T07:52:01;3.33;;;1.67;;
50122;SDS011;36021;48.670;6.184;2023-03-31T07:54:27;2.58;;;1.58;;
50122;SDS011;36021;48.670;6.184;2023-03-31T07:56:54;6.07;;;1.55;;
50122;SDS011;36021;48.670;6.184;2023-03-31T07:59:22;5.55;;;1.55;;
50122;SDS011;36021;48.670;6.184;2023-03-31T08:01:48;7.40;;;2.38;;
50122;SDS011;36021;48.670;6.184;2023-03-31T08:04:13;6.35;;;1.92;;
50122;SDS011;36021;48.670;6.184;2023-03-31T08:06:39;5.25;;;1.90;;
50122;SDS011;36021;48.670;6.184;2023-03-31T08:09:05;4.93;;;1.95;;
50122;SDS011;36021;48.670;6.184;2023-03-31T08:11:33;7.55;;;1.67;;
50122;SDS011;36021;48.670;6.184;2023-03-31T08:14:01;8.30;;;2.03;;
50122;SDS011;36021;48.670;6.184;2023-03-31T08:16:26;7.07;;;1.52;;
50122;SDS011;36021;48.670;6.184;2023-03-31T08:18:52;6.93;;;1.88;;
50122;SDS011;36021;48.670;6.184;2023-03-31T08:21:18;16.23;;;2.00;;
50122;SDS011;36021;48.670;6.184;2023-03-31T08:23:43;5.65;;;1.80;;
50122;SDS011;36021;48.670;6.184;2023-03-31T08:26:13;6.63;;;1.70;;
50122;SDS011;36021;48.670;6.184;2023-03-31T08:28:42;10.13;;;1.85;;
50122;SDS011;36021;48.670;6.184;2023-03-31T08:31:09;5.47;;;1.60;;
50122;SDS011;36021;48.670;6.184;2023-03-31T08:33:35;8.98;;;1.85;;
50122;SDS011;36021;48.670;6.184;2023-03-31T08:36:05;7.90;;;2.08;;
50122;SDS011;36021;48.670;6.184;2023-03-31T08:38:35;17.15;;;2.42;;
50122;SDS011;36021;48.670;6.184;2023-03-31T08:41:33;10.20;;;2.25;;
50122;SDS011;36021;48.670;6.184;2023-03-31T08:44:37;2.33;;;1.20;;
50122;SDS011;36021;48.670;6.184;2023-03-31T08:47:15;10.23;;;1.52;;
50122;SDS011;36021;48.670;6.184;2023-03-31T08:49:45;6.85;;;1.33;;
50122;SDS011;36021;48.670;6.184;2023-03-31T08:52:18;9.88;;;2.25;;
50122;SDS011;36021;48.670;6.184;2023-03-31T08:55:00;2.72;;;1.60;;
50122;SDS011;36021;48.670;6.184;2023-03-31T08:57:37;6.75;;;2.60;;
50122;SDS011;36021;48.670;6.184;2023-03-31T09:00:22;3.42;;;1.65;;
50122;SDS011;36021;48.670;6.184;2023-03-31T09:02:50;3.53;;;1.27;;
50122;SDS011;36021;48.670;6.184;2023-03-31T09:05:42;3.85;;;1.45;;
50122;SDS011;36021;48.670;6.184;2023-03-31T09:16:04;2.03;;;1.13;;
50122;SDS011;36021;48.670;6.184;2023-03-31T09:18:38;3.20;;;0.90;;
50122;SDS011;36021;48.670;6.184;2023-03-31T09:26:42;1.63;;;0.80;;
50122;SDS011;36021;48.670;6.184;2023-03-31T09:29:12;3.95;;;0.63;;
50122;SDS011;36021;48.670;6.184;2023-03-31T09:31:44;2.10;;;0.63;;
50122;SDS011;36021;48.670;6.184;2023-03-31T09:34:24;0.50;;;0.40;;
50122;SDS011;36021;48.670;6.184;2023-03-31T09:36:52;0.85;;;0.60;;
50122;SDS011;36021;48.670;6.184;2023-03-31T09:39:19;3.53;;;0.85;;
50122;SDS011;36021;48.670;6.184;2023-03-31T09:44:22;0.40;;;0.40;;
50122;SDS011;36021;48.670;6.184;2023-03-31T09:46:51;2.80;;;0.73;;
50122;SDS011;36021;48.670;6.184;2023-03-31T09:49:19;1.50;;;0.73;;
50122;SDS011;36021;48.670;6.184;2023-03-31T09:51:48;1.55;;;0.80;;
50122;SDS011;36021;48.670;6.184;2023-03-31T09:54:43;4.03;;;1.05;;
50122;SDS011;36021;48.670;6.184;2023-03-31T09:57:28;4.13;;;1.23;;
50122;SDS011;36021;48.670;6.184;2023-03-31T10:02:53;12.32;;;1.70;;
50122;SDS011;36021;48.670;6.184;2023-03-31T10:10:43;3.00;;;0.80;;
50122;SDS011;36021;48.670;6.184;2023-03-31T10:13:16;4.00;;;1.25;;
50122;SDS011;36021;48.670;6.184;2023-03-31T10:15:47;3.20;;;0.75;;
50122;SDS011;36021;48.670;6.184;2023-03-31T10:18:18;1.65;;;0.77;;
50122;SDS011;36021;48.670;6.184;2023-03-31T10:20:48;2.65;;;0.60;;
50122;SDS011;36021;48.670;6.184;2023-03-31T10:23:28;2.35;;;1.02;;
50122;SDS011;36021;48.670;6.184;2023-03-31T10:25:56;4.20;;;1.15;;
50122;SDS011;36021;48.670;6.184;2023-03-31T10:28:23;4.40;;;1.20;;
50122;SDS011;36021;48.670;6.184;2023-03-31T10:30:51;3.30;;;1.02;;
50122;SDS011;36021;48.670;6.184;2023-03-31T10:35:49;3.58;;;0.80;;
50122;SDS011;36021;48.670;6.184;2023-03-31T10:38:23;4.35;;;1.20;;
50122;SDS011;36021;48.670;6.184;2023-03-31T10:40:56;4.18;;;1.27;;
50122;SDS011;36021;48.670;6.184;2023-03-31T10:43:47;2.40;;;0.50;;
50122;SDS011;36021;48.670;6.184;2023-03-31T10:46:15;2.85;;;0.73;;
50122;SDS011;36021;48.670;6.184;2023-03-31T10:48:41;5.15;;;1.00;;
50122;SDS011;36021;48.670;6.184;2023-03-31T10:51:14;3.73;;;0.53;;
50122;SDS011;36021;48.670;6.184;2023-03-31T10:53:53;7.75;;;1.00;;
50122;SDS011;36021;48.670;6.184;2023-03-31T11:15:34;3.33;;;1.77;;
50122;SDS011;36021;48.670;6.184;2023-03-31T11:18:37;4.55;;;1.63;;
50122;SDS011;36021;48.670;6.184;2023-03-31T11:32:47;3.53;;;1.60;;
50122;SDS011;36021;48.670;6.184;2023-03-31T11:38:22;2.00;;;0.80;;
50122;SDS011;36021;48.670;6.184;2023-03-31T11:41:24;2.00;;;1.08;;
50122;SDS011;36021;48.670;6.184;2023-03-31T11:44:03;3.97;;;1.10;;
50122;SDS011;36021;48.670;6.184;2023-03-31T11:46:36;4.82;;;1.60;;
50122;SDS011;36021;48.670;6.184;2023-03-31T11:49:03;11.48;;;2.15;;
50122;SDS011;36021;48.670;6.184;2023-03-31T11:54:15;4.78;;;1.52;;
50122;SDS011;36021;48.670;6.184;2023-03-31T11:56:44;4.43;;;1.33;;
50122;SDS011;36021;48.670;6.184;2023-03-31T11:59:15;4.38;;;0.88;;
50122;SDS011;36021;48.670;6.184;2023-03-31T12:04:38;7.85;;;1.73;;
50122;SDS011;36021;48.670;6.184;2023-03-31T12:07:33;4.65;;;1.25;;
50122;SDS011;36021;48.670;6.184;2023-03-31T12:13:02;6.00;;;1.80;;
50122;SDS011;36021;48.670;6.184;2023-03-31T12:15:47;3.53;;;1.73;;
50122;SDS011;36021;48.670;6.184;2023-03-31T12:18:25;2.70;;;1.35;;
50122;SDS011;36021;48.670;6.184;2023-03-31T12:21:01;0.57;;;0.43;;
50122;SDS011;36021;48.670;6.184;2023-03-31T12:23:30;1.60;;;0.60;;
50122;SDS011;36021;48.670;6.184;2023-03-31T12:28:36;2.08;;;0.55;;
50122;SDS011;36021;48.670;6.184;2023-03-31T12:31:06;0.52;;;0.50;;
50122;SDS011;36021;48.670;6.184;2023-03-31T12:33:41;1.45;;;0.70;;
50122;SDS011;36021;48.670;6.184;2023-03-31T12:39:40;2.10;;;0.45;;
50122;SDS011;36021;48.670;6.184;2023-03-31T12:41:54;6.00;;;0.85;;
50122;SDS011;36021;48.670;6.184;2023-03-31T12:56:03;2.78;;;1.23;;
50122;SDS011;36021;48.670;6.184;2023-03-31T12:58:50;2.40;;;0.70;;
50122;SDS011;36021;48.670;6.184;2023-03-31T13:01:22;4.82;;;0.93;;
50122;SDS011;36021;48.670;6.184;2023-03-31T13:06:49;3.83;;;0.93;;
50122;SDS011;36021;48.670;6.184;2023-03-31T13:11:43;5.32;;;0.98;;
50122;SDS011;36021;48.670;6.184;2023-03-31T13:14:19;1.92;;;0.93;;
50122;SDS011;36021;48.670;6.184;2023-03-31T13:16:47;3.60;;;0.82;;
50122;SDS011;36021;48.670;6.184;2023-03-31T13:27:57;5.68;;;1.20;;
50122;SDS011;36021;48.670;6.184;2023-03-31T13:35:40;4.97;;;0.90;;
50122;SDS011;36021;48.670;6.184;2023-03-31T13:55:22;1.00;;;0.40;;
50122;SDS011;36021;48.670;6.184;2023-03-31T14:06:25;2.53;;;0.93;;
50122;SDS011;36021;48.670;6.184;2023-03-31T14:09:06;0.60;;;0.50;;
50122;SDS011;36021;48.670;6.184;2023-03-31T14:11:36;6.50;;;0.85;;
50122;SDS011;36021;48.670;6.184;2023-03-31T14:14:06;2.05;;;0.63;;
50122;SDS011;36021;48.670;6.184;2023-03-31T14:19:15;2.03;;;0.70;;
50122;SDS011;36021;48.670;6.184;2023-03-31T14:24:30;0.70;;;0.70;;
50122;SDS011;36021;48.670;6.184;2023-03-31T14:27:14;3.55;;;0.68;;
50122;SDS011;36021;48.670;6.184;2023-03-31T14:29:46;1.42;;;0.70;;
50122;SDS011;36021;48.670;6.184;2023-03-31T14:32:25;2.53;;;0.88;;
50122;SDS011;36021;48.670;6.184;2023-03-31T14:37:39;3.25;;;0.52;;
50122;SDS011;36021;48.670;6.184;2023-03-31T14:40:09;0.93;;;0.80;;
50122;SDS011;36021;48.670;6.184;2023-03-31T14:42:40;1.17;;;0.55;;
50122;SDS011;36021;48.670;6.184;2023-03-31T14:47:56;2.03;;;0.77;;
50122;SDS011;36021;48.670;6.184;2023-03-31T14:50:28;6.03;;;1.02;;
50122;SDS011;36021;48.670;6.184;2023-03-31T14:52:56;2.75;;;0.75;;
50122;SDS011;36021;48.670;6.184;2023-03-31T14:55:26;3.85;;;1.25;;
50122;SDS011;36021;48.670;6.184;2023-03-31T14:57:54;5.15;;;0.88;;
50122;SDS011;36021;48.670;6.184;2023-03-31T15:00:31;4.85;;;1.15;;
50122;SDS011;36021;48.670;6.184;2023-03-31T15:03:00;4.60;;;0.93;;
50122;SDS011;36021;48.670;6.184;2023-03-31T15:05:34;6.05;;;1.02;;
50122;SDS011;36021;48.670;6.184;2023-03-31T15:08:03;9.35;;;0.90;;
50122;SDS011;36021;48.670;6.184;2023-03-31T15:10:32;4.30;;;0.95;;
50122;SDS011;36021;48.670;6.184;2023-03-31T15:13:09;1.88;;;1.00;;
50122;SDS011;36021;48.670;6.184;2023-03-31T15:15:43;1.05;;;0.63;;
50122;SDS011;36021;48.670;6.184;2023-03-31T15:18:11;5.35;;;0.82;;
50122;SDS011;36021;48.670;6.184;2023-03-31T15:20:39;10.15;;;1.13;;
50122;SDS011;36021;48.670;6.184;2023-03-31T15:23:25;0.63;;;0.50;;
50122;SDS011;36021;48.670;6.184;2023-03-31T15:26:00;1.25;;;0.77;;
50122;SDS011;36021;48.670;6.184;2023-03-31T15:28:35;1.48;;;0.40;;
50122;SDS011;36021;48.670;6.184;2023-03-31T15:31:04;1.38;;;0.60;;
50122;SDS011;36021;48.670;6.184;2023-03-31T15:33:34;8.90;;;1.17;;
50122;SDS011;36021;48.670;6.184;2023-03-31T15:36:05;1.80;;;0.55;;
50122;SDS011;36021;48.670;6.184;2023-03-31T15:38:32;2.75;;;0.80;;
50122;SDS011;36021;48.670;6.184;2023-03-31T15:40:59;2.78;;;1.15;;
50122;SDS011;36021;48.670;6.184;2023-03-31T15:43:33;1.80;;;0.75;;
50122;SDS011;36021;48.670;6.184;2023-03-31T15:46:24;1.20;;;0.82;;
50122;SDS011;36021;48.670;6.184;2023-03-31T15:49:27;2.58;;;1.20;;
50122;SDS011;36021;48.670;6.184;2023-03-31T15:51:54;1.35;;;0.88;;
50122;SDS011;36021;48.670;6.184;2023-03-31T15:54:29;0.75;;;0.52;;
50122;SDS011;36021;48.670;6.184;2023-03-31T15:57:03;1.42;;;0.60;;
50122;SDS011;36021;48.670;6.184;2023-03-31T15:59:50;1.90;;;0.45;;
50122;SDS011;36021;48.670;6.184;2023-03-31T16:02:21;1.58;;;0.63;;
50122;SDS011;36021;48.670;6.184;2023-03-31T16:04:49;1.75;;;0.73;;
50122;SDS011;36021;48.670;6.184;2023-03-31T16:07:21;1.42;;;0.93;;
50122;SDS011;36021;48.670;6.184;2023-03-31T16:09:56;6.13;;;0.65;;
50122;SDS011;36021;48.670;6.184;2023-03-31T16:12:34;5.65;;;1.08;;
50122;SDS011;36021;48.670;6.184;2023-03-31T16:17:33;12.57;;;1.42;;
50122;SDS011;36021;48.670;6.184;2023-03-31T16:20:52;1.65;;;1.10;;
50122;SDS011;36021;48.670;6.184;2023-03-31T16:23:20;4.33;;;0.90;;
50122;SDS011;36021;48.670;6.184;2023-03-31T16:25:50;3.85;;;0.55;;
50122;SDS011;36021;48.670;6.184;2023-03-31T16:28:17;5.13;;;0.75;;
50122;SDS011;36021;48.670;6.184;2023-03-31T16:30:46;1.60;;;1.00;;
50122;SDS011;36021;48.670;6.184;2023-03-31T16:33:13;2.28;;;0.50;;
50122;SDS011;36021;48.670;6.184;2023-03-31T16:35:47;3.80;;;0.85;;
50122;SDS011;36021;48.670;6.184;2023-03-31T16:38:24;2.40;;;0.70;;
50122;SDS011;36021;48.670;6.184;2023-03-31T16:40:51;4.85;;;0.60;;
50122;SDS011;36021;48.670;6.184;2023-03-31T16:43:22;2.60;;;0.70;;
50122;SDS011;36021;48.670;6.184;2023-03-31T16:45:50;1.27;;;0.90;;
50122;SDS011;36021;48.670;6.184;2023-03-31T16:48:21;3.65;;;0.73;;
50122;SDS011;36021;48.670;6.184;2023-03-31T16:50:49;3.13;;;1.00;;
50122;SDS011;36021;48.670;6.184;2023-03-31T16:53:18;2.67;;;0.63;;
50122;SDS011;36021;48.670;6.184;2023-03-31T16:55:46;3.40;;;1.02;;
50122;SDS011;36021;48.670;6.184;2023-03-31T16:58:14;4.30;;;0.80;;
50122;SDS011;36021;48.670;6.184;2023-03-31T17:00:41;4.30;;;1.00;;
50122;SDS011;36021;48.670;6.184;2023-03-31T17:05:37;1.63;;;0.60;;
50122;SDS011;36021;48.670;6.184;2023-03-31T17:08:04;3.47;;;0.82;;
50122;SDS011;36021;48.670;6.184;2023-03-31T17:10:30;0.88;;;0.70;;
50122;SDS011;36021;48.670;6.184;2023-03-31T17:12:56;2.20;;;0.68;;
50122;SDS011;36021;48.670;6.184;2023-03-31T17:15:22;4.65;;;0.93;;
50122;SDS011;36021;48.670;6.184;2023-03-31T17:17:47;5.75;;;0.82;;
50122;SDS011;36021;48.670;6.184;2023-03-31T17:20:13;3.05;;;0.85;;
50122;SDS011;36021;48.670;6.184;2023-03-31T17:22:39;4.15;;;1.02;;
50122;SDS011;36021;48.670;6.184;2023-03-31T17:25:04;3.38;;;0.77;;
50122;SDS011;36021;48.670;6.184;2023-03-31T17:27:32;3.85;;;1.23;;
50122;SDS011;36021;48.670;6.184;2023-03-31T17:29:58;3.92;;;1.05;;
50122;SDS011;36021;48.670;6.184;2023-03-31T17:32:24;1.70;;;0.93;;
50122;SDS011;36021;48.670;6.184;2023-03-31T17:34:50;3.20;;;0.98;;
50122;SDS011;36021;48.670;6.184;2023-03-31T17:37:16;1.35;;;0.65;;
50122;SDS011;36021;48.670;6.184;2023-03-31T17:39:43;7.80;;;1.10;;
50122;SDS011;36021;48.670;6.184;2023-03-31T17:44:39;2.25;;;0.70;;
50122;SDS011;36021;48.670;6.184;2023-03-31T17:47:05;2.55;;;0.90;;
50122;SDS011;36021;48.670;6.184;2023-03-31T17:49:31;1.52;;;0.70;;
50122;SDS011;36021;48.670;6.184;2023-03-31T17:51:57;2.47;;;0.52;;
50122;SDS011;36021;48.670;6.184;2023-03-31T17:54:23;6.55;;;0.68;;
50122;SDS011;36021;48.670;6.184;2023-03-31T17:56:50;1.58;;;0.70;;
50122;SDS011;36021;48.670;6.184;2023-03-31T17:59:17;0.95;;;0.60;;
50122;SDS011;36021;48.670;6.184;2023-03-31T18:01:45;1.57;;;0.90;;
50122;SDS011;36021;48.670;6.184;2023-03-31T18:04:12;0.55;;;0.55;;
50122;SDS011;36021;48.670;6.184;2023-03-31T18:06:40;0.63;;;0.43;;
50122;SDS011;36021;48.670;6.184;2023-03-31T18:09:06;1.77;;;0.77;;
50122;SDS011;36021;48.670;6.184;2023-03-31T18:11:36;0.60;;;0.60;;
50122;SDS011;36021;48.670;6.184;2023-03-31T18:14:02;1.45;;;0.60;;
50122;SDS011;36021;48.670;6.184;2023-03-31T18:16:28;0.32;;;0.32;;